createdAt,value
2023-04-13T00:00:50.970Z,7.66
2023-04-13T00:03:21.111Z,7.94
2023-04-13T00:05:53.089Z,7.65
2023-04-13T00:08:23.573Z,7.79
2023-04-13T00:10:53.584Z,7.82
2023-04-13T00:13:22.113Z,7.52
2023-04-13T00:15:50.593Z,7.68
2023-04-13T00:18:20.853Z,8.19
2023-04-13T00:20:50.795Z,7.64
2023-04-13T00:23:19.375Z,8.38
2023-04-13T00:25:47.908Z,7.91
2023-04-13T00:28:18.382Z,8.03
2023-04-13T00:30:46.925Z,7.70
2023-04-13T00:33:15.956Z,7.49
2023-04-13T00:35:45.005Z,7.83
2023-04-13T00:38:14.939Z,7.85
2023-04-13T00:40:43.795Z,7.43
2023-04-13T00:43:12.321Z,8.01
2023-04-13T00:45:41.483Z,7.78
2023-04-13T00:48:11.662Z,7.44
2023-04-13T00:50:42.701Z,7.53
2023-04-13T00:53:13.761Z,8.15
2023-04-13T00:55:44.075Z,7.92
2023-04-13T00:58:13.752Z,8.29
2023-04-13T01:00:43.368Z,8.16
2023-04-13T01:03:13.051Z,8.25
2023-04-13T01:05:50.632Z,8.53
2023-04-13T01:08:37.232Z,8.57
2023-04-13T01:11:14.421Z,8.78
2023-04-13T01:13:47.859Z,8.54
2023-04-13T01:16:21.236Z,8.92
2023-04-13T01:18:54.034Z,7.95
2023-04-13T01:21:26.386Z,8.22
2023-04-13T01:24:07.141Z,8.56
2023-04-13T01:26:45.824Z,8.43
2023-04-13T01:29:17.285Z,8.67
2023-04-13T01:31:46.316Z,9.02
2023-04-13T01:34:15.047Z,8.53
2023-04-13T01:36:43.745Z,8.10
2023-04-13T01:39:20.410Z,8.72
2023-04-13T01:41:49.215Z,8.62
2023-04-13T01:44:19.514Z,8.89
2023-04-13T01:46:54.341Z,8.36
2023-04-13T01:49:24.196Z,8.41
2023-04-13T01:51:54.737Z,7.92
2023-04-13T01:54:27.332Z,8.72
2023-04-13T01:57:00.391Z,8.66
2023-04-13T01:59:30.638Z,8.47
2023-04-13T02:01:59.742Z,8.50
2023-04-13T02:04:28.300Z,8.12
2023-04-13T02:06:56.795Z,8.06
2023-04-13T02:09:25.329Z,8.18
2023-04-13T02:11:54.123Z,8.06
2023-04-13T02:14:22.731Z,8.49
2023-04-13T02:16:52.644Z,8.23
2023-04-13T02:19:21.847Z,8.59
2023-04-13T02:21:50.348Z,8.64
2023-04-13T02:24:18.838Z,8.22
2023-04-13T02:26:47.341Z,8.80
2023-04-13T02:29:16.361Z,8.21
2023-04-13T02:31:45.145Z,8.18
2023-04-13T02:34:15.001Z,8.64
2023-04-13T02:36:44.112Z,8.65
2023-04-13T02:39:13.390Z,8.08
2023-04-13T02:41:43.268Z,8.48
2023-04-13T02:44:12.034Z,8.48
2023-04-13T02:46:40.924Z,7.76
2023-04-13T02:49:09.601Z,8.18
2023-04-13T02:51:39.762Z,8.55
2023-04-13T02:54:12.036Z,8.26
2023-04-13T02:56:40.598Z,8.17
2023-04-13T02:59:09.146Z,8.63
2023-04-13T03:01:37.888Z,9.08
2023-04-13T03:04:08.216Z,8.58
2023-04-13T03:06:38.105Z,8.97
2023-04-13T03:09:06.582Z,9.35
2023-04-13T03:11:35.098Z,8.31
2023-04-13T03:14:03.588Z,8.63
2023-04-13T03:16:32.213Z,8.31
2023-04-13T03:19:00.728Z,8.44
2023-04-13T03:21:29.211Z,8.41
2023-04-13T03:23:59.585Z,8.48
2023-04-13T03:26:28.250Z,8.24
2023-04-13T03:28:56.723Z,9.24
2023-04-13T03:31:25.295Z,8.82
2023-04-13T03:33:53.790Z,8.37
2023-04-13T03:36:22.288Z,8.83
2023-04-13T03:38:50.751Z,8.26
2023-04-13T03:41:20.756Z,7.98
2023-04-13T03:43:49.273Z,8.03
2023-04-13T03:46:18.201Z,8.10
2023-04-13T03:48:46.875Z,8.21
2023-04-13T03:51:16.288Z,8.60
2023-04-13T03:53:44.768Z,8.03
2023-04-13T03:56:13.293Z,8.80
2023-04-13T03:58:43.205Z,8.63
2023-04-13T04:01:11.821Z,9.15
2023-04-13T04:03:40.360Z,8.95
2023-04-13T04:06:10.058Z,7.99
2023-04-13T04:08:38.621Z,8.43
2023-04-13T04:11:07.415Z,7.79
2023-04-13T04:13:35.908Z,8.22
2023-04-13T04:16:08.782Z,8.19
2023-04-13T04:18:37.370Z,9.05
2023-04-13T04:21:06.710Z,8.67
2023-04-13T04:23:37.839Z,8.38
2023-04-13T04:26:07.478Z,8.76
2023-04-13T04:28:38.748Z,8.47
2023-04-13T04:31:10.983Z,8.22
2023-04-13T04:33:39.640Z,8.29
2023-04-13T04:36:10.054Z,8.07
2023-04-13T04:38:38.575Z,8.34
2023-04-13T04:41:08.756Z,9.24
2023-04-13T04:43:37.659Z,8.06
2023-04-13T04:46:08.909Z,8.41
2023-04-13T04:48:39.132Z,8.51
2023-04-13T04:51:08.707Z,8.23
2023-04-13T04:53:37.169Z,8.48
2023-04-13T04:56:06.207Z,8.02
2023-04-13T04:58:34.675Z,8.39
2023-04-13T05:01:03.701Z,8.62
2023-04-13T05:03:32.357Z,8.99
2023-04-13T05:06:02.467Z,8.69
2023-04-13T05:08:30.982Z,8.44
2023-04-13T05:10:59.472Z,8.64
2023-04-13T05:13:28.008Z,8.47
2023-04-13T05:15:56.670Z,8.57
2023-04-13T05:18:25.831Z,9.30
2023-04-13T05:20:54.304Z,10.01
2023-04-13T05:23:24.262Z,9.15
2023-04-13T05:25:53.387Z,9.30
2023-04-13T05:28:22.541Z,9.27
2023-04-13T05:30:51.092Z,9.43
2023-04-13T05:33:20.722Z,10.43
2023-04-13T05:35:49.235Z,8.88
2023-04-13T05:38:17.761Z,9.31
2023-04-13T05:40:48.273Z,9.81
2023-04-13T05:43:17.081Z,10.14
2023-04-13T05:45:45.593Z,10.35
2023-04-13T05:48:14.756Z,10.09
2023-04-13T05:50:43.727Z,10.26
2023-04-13T05:53:12.763Z,10.19
2023-04-13T05:55:44.798Z,9.03
2023-04-13T05:58:16.042Z,9.90
2023-04-13T06:00:44.527Z,10.02
2023-04-13T06:03:13.270Z,10.21
2023-04-13T06:05:42.414Z,9.04
2023-04-13T06:08:11.949Z,10.42
2023-04-13T06:10:44.427Z,11.32
2023-04-13T06:13:13.554Z,11.19
2023-04-13T06:15:43.895Z,10.75
2023-04-13T06:18:12.438Z,10.65
2023-04-13T06:20:41.127Z,9.72
2023-04-13T06:23:09.641Z,10.40
2023-04-13T06:25:38.567Z,11.83
2023-04-13T06:28:07.456Z,10.92
2023-04-13T06:30:36.407Z,11.10
2023-04-13T06:33:06.360Z,10.98
2023-04-13T06:35:35.894Z,9.38
2023-04-13T06:38:04.530Z,10.85
2023-04-13T06:40:33.289Z,9.78
2023-04-13T06:43:01.851Z,10.08
2023-04-13T06:45:30.957Z,9.88
2023-04-13T06:48:00.452Z,9.11
2023-04-13T06:50:30.485Z,9.86
2023-04-13T06:53:00.517Z,9.67
2023-04-13T06:55:29.207Z,10.22
2023-04-13T06:57:57.713Z,10.86
2023-04-13T07:00:29.459Z,10.82
2023-04-13T07:02:59.564Z,10.53
2023-04-13T07:05:29.922Z,10.74
2023-04-13T07:07:58.474Z,10.47
2023-04-13T07:10:27.309Z,9.95
2023-04-13T07:12:55.963Z,10.38
2023-04-13T07:15:24.444Z,10.37
2023-04-13T07:17:53.084Z,10.24
2023-04-13T07:20:22.208Z,9.90
2023-04-13T07:22:52.224Z,9.54
2023-04-13T07:25:21.656Z,9.76
2023-04-13T07:27:50.854Z,10.30
2023-04-13T07:30:19.474Z,10.56
2023-04-13T07:32:48.178Z,10.09
2023-04-13T07:35:16.718Z,10.44
2023-04-13T07:37:46.644Z,10.14
2023-04-13T07:40:16.710Z,10.22
2023-04-13T07:42:47.296Z,10.12
2023-04-13T07:45:17.986Z,10.76
2023-04-13T07:47:46.523Z,10.77
2023-04-13T07:50:15.328Z,10.76
2023-04-13T07:52:43.970Z,11.18
2023-04-13T07:55:12.598Z,11.40
2023-04-13T07:57:42.447Z,10.70
2023-04-13T08:00:12.375Z,10.32
2023-04-13T08:02:41.459Z,10.45
2023-04-13T08:05:11.674Z,10.46
2023-04-13T08:07:40.297Z,9.80
2023-04-13T08:10:10.177Z,10.51
2023-04-13T08:12:38.687Z,9.40
2023-04-13T08:15:09.965Z,9.04
2023-04-13T08:17:39.263Z,8.64
2023-04-13T08:20:09.251Z,9.24
2023-04-13T08:22:37.809Z,9.74
2023-04-13T08:25:07.501Z,10.83
2023-04-13T08:27:36.004Z,9.98
2023-04-13T08:30:07.435Z,10.50
2023-04-13T08:32:37.378Z,9.87
2023-04-13T08:35:07.495Z,9.72
2023-04-13T08:37:36.062Z,10.03
2023-04-13T08:40:07.459Z,9.57
2023-04-13T08:42:36.651Z,9.52
2023-04-13T08:45:05.925Z,9.82
2023-04-13T08:47:35.894Z,10.02
2023-04-13T08:50:05.305Z,9.58
2023-04-13T08:52:35.336Z,9.63
2023-04-13T08:55:05.943Z,10.38
2023-04-13T08:57:35.235Z,10.47
2023-04-13T09:00:11.403Z,10.55
2023-04-13T09:02:56.106Z,10.36
2023-04-13T09:05:34.085Z,10.15
2023-04-13T09:08:04.899Z,10.83
2023-04-13T09:10:34.002Z,10.42
2023-04-13T09:13:03.216Z,10.32
2023-04-13T09:15:33.429Z,10.65
2023-04-13T09:18:10.925Z,10.97
2023-04-13T09:20:40.653Z,11.20
2023-04-13T09:23:16.450Z,12.05
2023-04-13T09:25:46.760Z,12.33
2023-04-13T09:28:19.383Z,12.34
2023-04-13T09:30:48.359Z,12.27
2023-04-13T09:33:18.766Z,12.08
2023-04-13T09:35:47.330Z,11.96
2023-04-13T09:38:17.489Z,12.07
2023-04-13T09:40:54.437Z,11.83
2023-04-13T09:43:23.069Z,10.67
2023-04-13T09:45:51.964Z,10.87
2023-04-13T09:48:23.164Z,10.73
2023-04-13T09:51:01.928Z,10.12
2023-04-13T09:53:42.518Z,10.97
2023-04-13T09:56:11.414Z,10.20
2023-04-13T09:58:45.554Z,11.04
2023-04-13T10:01:15.340Z,10.69
2023-04-13T10:03:45.879Z,10.25
2023-04-13T10:06:15.323Z,10.44
2023-04-13T10:08:46.342Z,10.87
2023-04-13T10:11:16.115Z,10.45
2023-04-13T10:13:50.660Z,10.55
2023-04-13T10:16:51.455Z,10.43
2023-04-13T10:19:24.099Z,10.53
2023-04-13T10:21:54.845Z,10.92
2023-04-13T10:24:25.507Z,11.34
2023-04-13T10:26:56.231Z,11.29
2023-04-13T10:29:32.788Z,11.05
2023-04-13T10:32:05.225Z,11.37
2023-04-13T10:34:36.631Z,11.31
2023-04-13T10:37:06.851Z,11.19
2023-04-13T10:39:37.713Z,11.57
2023-04-13T10:42:08.188Z,12.33
2023-04-13T10:44:44.203Z,13.01
2023-04-13T10:47:14.112Z,12.65
2023-04-13T10:49:46.107Z,13.15
2023-04-13T10:52:15.114Z,12.80
2023-04-13T10:54:45.080Z,11.77
2023-04-13T10:57:16.689Z,11.55
2023-04-13T10:59:57.973Z,11.26
2023-04-13T11:02:32.242Z,11.11
2023-04-13T11:05:03.311Z,11.53
2023-04-13T11:07:33.646Z,11.69
2023-04-13T11:10:03.267Z,11.90
2023-04-13T11:12:32.442Z,12.23
2023-04-13T11:15:01.492Z,12.09
2023-04-13T11:17:30.083Z,12.39
2023-04-13T11:19:59.294Z,11.94
2023-04-13T11:22:36.490Z,11.92
2023-04-13T11:25:10.207Z,12.08
2023-04-13T11:27:38.952Z,11.85
2023-04-13T11:30:11.224Z,12.31
2023-04-13T11:32:43.393Z,12.44
2023-04-13T11:35:14.851Z,12.30
2023-04-13T11:37:47.023Z,12.63
2023-04-13T11:40:20.269Z,12.68
2023-04-13T11:42:51.376Z,13.29
2023-04-13T11:45:21.883Z,13.08
2023-04-13T11:47:51.803Z,13.00
2023-04-13T11:50:21.605Z,13.22
2023-04-13T11:52:56.507Z,13.08
2023-04-13T11:55:26.261Z,12.60
2023-04-13T11:57:55.899Z,13.07
2023-04-13T12:00:26.733Z,13.16
2023-04-13T12:05:31.496Z,14.26
2023-04-13T12:08:04.241Z,14.15
2023-04-13T12:10:41.205Z,13.75
2023-04-13T12:13:21.058Z,14.30
2023-04-13T12:16:06.142Z,14.38
2023-04-13T12:18:47.046Z,13.96
2023-04-13T12:21:26.629Z,13.55
2023-04-13T12:23:59.096Z,13.67
2023-04-13T12:27:16.361Z,13.39
2023-04-13T12:29:23.856Z,13.66
2023-04-13T12:31:52.181Z,13.26
2023-04-13T12:34:21.022Z,13.17
2023-04-13T12:36:49.221Z,12.90
2023-04-13T12:39:19.332Z,12.70
2023-04-13T12:41:47.949Z,13.04
2023-04-13T12:44:16.170Z,13.00
2023-04-13T12:46:44.965Z,13.78
2023-04-13T12:49:13.209Z,13.49
2023-04-13T12:51:41.436Z,13.29
2023-04-13T12:54:13.262Z,13.54
2023-04-13T12:56:42.928Z,13.63
2023-04-13T12:59:11.159Z,13.33
2023-04-13T13:01:39.460Z,13.53
2023-04-13T13:04:07.910Z,12.76
2023-04-13T13:06:36.196Z,13.07
2023-04-13T13:09:05.698Z,13.74
2023-04-13T13:11:34.051Z,13.53
2023-04-13T13:14:03.645Z,13.46
2023-04-13T13:16:32.342Z,14.06
2023-04-13T13:19:00.848Z,13.83
2023-04-13T13:21:30.304Z,14.01
2023-04-13T13:23:58.510Z,14.14
2023-04-13T13:26:30.622Z,14.24
2023-04-13T13:29:09.657Z,14.60
2023-04-13T13:31:38.073Z,14.28
2023-04-13T13:34:06.342Z,14.41
2023-04-13T13:36:34.666Z,13.97
2023-04-13T13:39:02.873Z,13.91
2023-04-13T13:41:31.186Z,13.72
2023-04-13T13:43:59.407Z,13.65
2023-04-13T13:46:29.021Z,13.43
2023-04-13T13:48:57.349Z,13.43
2023-04-13T13:51:27.711Z,13.86
2023-04-13T13:53:56.278Z,13.91
2023-04-13T13:56:24.961Z,14.15
2023-04-13T13:58:53.326Z,14.50
2023-04-13T15:58:53.976Z,14.63
2023-04-13T16:01:22.265Z,14.68
2023-04-13T16:03:51.020Z,14.73
2023-04-13T16:06:19.965Z,14.23
2023-04-13T16:08:48.108Z,14.44
2023-04-13T16:11:16.335Z,14.54
2023-04-13T16:13:48.796Z,14.46
2023-04-13T16:16:20.960Z,14.53
2023-04-13T16:18:49.254Z,14.01
2023-04-13T16:21:19.923Z,14.24
2023-04-13T16:23:48.522Z,14.11
2023-04-13T16:26:16.718Z,14.41
2023-04-13T16:28:44.888Z,13.73
2023-04-13T16:31:13.201Z,14.08
2023-04-13T16:33:42.775Z,14.31
2023-04-13T16:36:11.586Z,14.70
2023-04-13T16:38:41.920Z,14.68
2023-04-13T16:41:11.205Z,14.24
2023-04-13T16:43:40.124Z,14.67
2023-04-13T16:46:17.549Z,14.90
2023-04-13T16:48:47.571Z,14.96
2023-04-13T16:51:16.310Z,15.02
2023-04-13T16:53:44.466Z,14.97
2023-04-13T16:56:14.171Z,14.27
2023-04-13T16:58:43.485Z,14.54
2023-04-13T17:01:11.734Z,14.36
2023-04-13T17:03:39.967Z,14.70
2023-04-13T17:06:10.986Z,14.96
2023-04-13T17:08:39.751Z,15.10
2023-04-13T17:11:08.923Z,15.09
2023-04-13T17:13:39.014Z,15.03
2023-04-13T17:16:09.560Z,14.78
2023-04-13T17:18:38.775Z,15.09
2023-04-13T17:21:10.559Z,15.29
2023-04-13T17:23:40.601Z,14.83
2023-04-13T17:26:09.099Z,15.17
2023-04-13T17:28:39.482Z,15.30
2023-04-13T17:31:09.261Z,14.41
2023-04-13T17:33:38.144Z,14.73
2023-04-13T17:36:06.865Z,14.42
2023-04-13T17:38:37.025Z,14.72
2023-04-13T17:41:06.980Z,14.28
2023-04-13T17:43:36.464Z,14.79
2023-04-13T17:46:05.097Z,14.97
2023-04-13T17:48:34.734Z,14.39
2023-04-13T17:51:05.059Z,13.88
2023-04-13T17:53:33.875Z,14.39
2023-04-13T17:56:03.651Z,14.69
2023-04-13T17:58:32.029Z,14.76
2023-04-13T18:01:08.111Z,14.80
2023-04-13T18:03:37.558Z,14.80
2023-04-13T18:06:07.141Z,14.69
2023-04-13T18:08:35.940Z,14.26
2023-04-13T18:11:06.144Z,14.49
2023-04-13T18:13:35.151Z,14.52
2023-04-13T18:16:05.313Z,14.62
2023-04-13T18:18:33.629Z,14.56
2023-04-13T18:21:02.214Z,14.54
2023-04-13T18:23:31.005Z,14.56
2023-04-13T18:26:00.143Z,14.46
2023-04-13T18:28:31.613Z,14.51
2023-04-13T18:31:01.765Z,14.50
2023-04-13T18:33:31.910Z,14.50
2023-04-13T18:36:00.930Z,14.48
2023-04-13T18:38:29.761Z,14.43
2023-04-13T18:40:58.338Z,14.33
2023-04-13T18:43:27.706Z,14.32
2023-04-13T18:45:57.959Z,14.39
2023-04-13T18:48:26.949Z,14.40
2023-04-13T18:50:55.337Z,14.39
2023-04-13T18:53:24.371Z,14.38
2023-04-13T18:55:53.604Z,14.38
2023-04-13T18:58:22.462Z,14.41
2023-04-13T19:00:51.665Z,14.39
2023-04-13T19:03:22.861Z,14.35
2023-04-13T19:05:52.125Z,14.33
2023-04-13T19:08:21.429Z,14.30
2023-04-13T19:10:51.400Z,14.21
2023-04-13T19:13:20.133Z,14.23
2023-04-13T19:15:49.016Z,14.19
2023-04-13T19:18:18.290Z,14.25
2023-04-13T19:20:50.453Z,14.21
2023-04-13T19:23:19.038Z,14.22
2023-04-13T19:25:47.424Z,14.22
2023-04-13T19:28:16.186Z,14.21
2023-04-13T19:30:45.170Z,14.23
2023-04-13T19:33:13.590Z,14.21
2023-04-13T19:35:42.325Z,14.19
2023-04-13T19:38:13.024Z,14.21
2023-04-13T19:40:42.006Z,14.20
2023-04-13T19:43:13.128Z,14.18
2023-04-13T19:45:42.594Z,14.13
2023-04-13T19:48:11.390Z,14.17
2023-04-13T19:50:39.861Z,14.17
2023-04-13T19:53:11.239Z,14.17
2023-04-13T19:55:39.582Z,14.16
2023-04-13T19:58:09.691Z,14.07
2023-04-13T20:00:40.017Z,14.02
2023-04-13T20:03:08.985Z,13.96
2023-04-13T20:05:38.379Z,13.98
2023-04-13T20:08:08.095Z,13.95
2023-04-13T20:10:38.518Z,13.96
2023-04-13T20:13:07.666Z,14.00
2023-04-13T20:15:36.060Z,13.91
2023-04-13T20:18:07.558Z,13.93
2023-04-13T20:20:40.525Z,13.92
2023-04-13T20:23:11.334Z,13.99
2023-04-13T20:25:41.326Z,13.91
2023-04-13T20:28:11.383Z,13.80
2023-04-13T20:30:41.283Z,13.96
2023-04-13T20:33:12.160Z,13.87
2023-04-13T20:35:40.780Z,13.80
2023-04-13T20:38:10.299Z,13.93
2023-04-13T20:40:41.907Z,13.88
2023-04-13T20:43:11.349Z,13.87
2023-04-13T20:45:40.312Z,13.87
2023-04-13T20:50:46.071Z,13.79
2023-04-13T20:53:16.773Z,13.81
2023-04-13T20:55:49.976Z,13.75
2023-04-13T20:58:18.853Z,13.73
2023-04-13T21:00:48.676Z,13.70
2023-04-13T21:03:20.819Z,13.71
2023-04-13T21:05:49.562Z,13.67
2023-04-13T21:08:18.030Z,13.61
2023-04-13T21:10:47.769Z,13.66
2023-04-13T21:13:16.892Z,13.66
2023-04-13T21:15:46.196Z,13.65
2023-04-13T21:18:15.461Z,13.68
2023-04-13T21:20:46.005Z,13.66
2023-04-13T21:23:15.607Z,13.60
2023-04-13T21:25:44.913Z,13.56
2023-04-13T21:28:14.954Z,13.23
2023-04-13T21:30:43.653Z,11.88
2023-04-13T21:33:12.008Z,11.12
2023-04-13T21:35:40.597Z,11.17
2023-04-13T21:38:09.622Z,12.00
2023-04-13T21:40:40.161Z,12.03
2023-04-13T21:43:09.642Z,13.05
2023-04-13T21:45:39.586Z,13.06
2023-04-13T21:48:10.117Z,12.96
2023-04-13T21:50:39.450Z,13.04
2023-04-13T21:53:07.906Z,13.12
2023-04-13T21:55:36.887Z,13.09
2023-04-13T21:58:06.786Z,13.13
2023-04-13T22:00:35.528Z,13.40
2023-04-13T22:03:05.972Z,13.53
2023-04-13T22:05:34.545Z,13.58
2023-04-13T22:08:04.555Z,13.54
2023-04-13T22:10:32.995Z,13.48
2023-04-13T22:13:01.743Z,13.63
2023-04-13T22:15:30.509Z,13.47
2023-04-13T22:17:59.036Z,13.41
2023-04-13T22:20:29.118Z,13.44
2023-04-13T22:22:57.688Z,13.32
2023-04-13T22:25:28.004Z,13.31
2023-04-13T22:27:56.618Z,13.26
2023-04-13T22:30:25.054Z,13.27
2023-04-13T22:32:53.999Z,13.20
2023-04-13T22:35:22.524Z,13.21
2023-04-13T22:37:52.941Z,13.20
2023-04-13T22:40:22.025Z,13.34
2023-04-13T22:42:51.458Z,13.21
2023-04-13T22:45:20.439Z,13.16
2023-04-13T22:47:54.056Z,13.13
2023-04-13T22:50:23.107Z,13.08
2023-04-13T22:52:53.417Z,13.08
2023-04-13T22:55:22.177Z,13.15
2023-04-13T22:57:50.686Z,13.07
2023-04-13T23:00:20.785Z,13.04
2023-04-13T23:02:50.542Z,13.03
2023-04-13T23:05:19.256Z,12.99
2023-04-13T23:07:47.436Z,13.03
2023-04-13T23:10:17.788Z,13.02
2023-04-13T23:12:46.313Z,13.20
2023-04-13T23:15:14.990Z,12.92
2023-04-13T23:17:43.178Z,12.94
2023-04-13T23:20:11.984Z,12.92
2023-04-13T23:22:40.438Z,12.92
2023-04-13T23:25:09.515Z,12.90
2023-04-13T23:27:39.058Z,12.94
2023-04-13T23:30:08.922Z,12.89
2023-04-13T23:32:37.238Z,12.80
2023-04-13T23:35:06.359Z,12.83
2023-04-13T23:37:34.599Z,12.85
2023-04-13T23:40:02.900Z,12.81
2023-04-13T23:42:31.073Z,12.80
2023-04-13T23:45:01.345Z,12.78
2023-04-13T23:47:29.625Z,12.77
2023-04-13T23:49:57.815Z,12.80
2023-04-13T23:52:25.984Z,12.79
2023-04-13T23:54:54.216Z,12.80
2023-04-13T23:57:22.543Z,12.76
2023-04-13T23:59:57.275Z,12.67
